Pittsfield, IL

5:01 PM CDT on September 23, 2014 (GMT -0500)
Jacksonville Municipal | Change Station
CLOSE
Current Station
Airport
Location: Jacksonville,
Elevation: 623 ft
Nearby Weather Stations

Elev 623 ft 39.77 °N, 90.24 °W | Updated 31 minutes ago

Partly Cloudy
Partly Cloudy
77 °F
Feels Like 77 °F
N
6
Wind Variable Wind from SSE

Today
High -- | Low -- °F
--% Chance of Precip.
Yesterday
High -- | Low -- °F
Precip. -- in
6:51 AM 6:58 PM
Waning Crescent, 0% visible
Pressure 30.24 in
Visibility 10.0 miles
Clouds Clear
Dew Point 46 °F
Humidity 34%
Rainfall 0.05 in
Snow Depth Not available.
UV 2 out of 12
Pollen 5.40 out of 12
Air Quality Not available.
Flu Activity Not available.
METAR KIJX 232130Z AUTO 16005KT 10SM CLR 25/08 A3024 RMK AO2 T02480077

More Conditions Fewer Conditions

Pressure 30.24 in
Visibility 10.0 miles
Clouds Clear
Dew Point 46 °F
Humidity 34%
Rainfall 0.05 in
Snow Depth Not available.
UV 2 out of 12
Pollen 5.40 out of 12
Air Quality Not available.
Flu Activity Not available.
METAR KIJX 232130Z AUTO 16005KT 10SM CLR 25/08 A3024 RMK AO2 T02480077

More Conditions Fewer Conditions

10-Day Weather Forecast

Almanac

Astronomy

Sep. 23, 2014 Rise Set
Actual Time 6:51 AM CDT 6:58 PM CDT
Civil Twilight 6:24 AM CDT 7:25 PM CDT
Nautical Twilight 5:53 AM CDT 7:56 PM CDT
Astronomical Twilight 5:21 AM CDT 8:28 PM CDT
Moon 6:16 AM CDT 6:37 PM CDT
Length of Visible Light 13h 00m
Length of Day
12h 06m
Tomorrow will be 2m 35s shorter.
Waning Crescent, 0% of the Moon is Illuminated
Today
Waning Crescent
Sep 24
New
Oct 1
First Quarter
Oct 8
Full
Oct 15
Last Quarter

Today's Extremes

State Highs State Lows

Community

WunderPhotos

Upload Photos

1,755,800 photos uploaded!

WunderBlogs® & News

Nearby

Snow Depth

Station Depth Elevation
No new snow has been reported.

Earthquake Activity

City Distance Mag. Time & Date
No recent earthquake activity has been reported nearby.
Minimum magnitude displayed is 2.5.

Coastal Water Temperatures

Place Temperature
No Stations Reporting

Nearby Weather Stations